Terminal Aerodrome Forecast
Issued by NWS

Home | Current Version | Previous Version | Text Only | Print | Product List | Glossary On
Versions: 1 2 3 4 5 6 7 8 9 10 11 12 13 14
688
FTUS44 KLZK 041720
TAFLIT
TAF
KLIT 041720Z 0418/0518 29015G25KT P6SM SCT080
     FM042000 33012G22KT P6SM FEW050 SCT080
     FM050100 34008KT P6SM SKC=

USA.gov is the U.S. government's official web portal to all federal, state and local government web resources and services.